createdAt,value
2022-12-31T00:00:48.174Z,98664.41
2022-12-31T00:01:51.226Z,98673.06
2022-12-31T00:02:54.357Z,98666.50
2022-12-31T00:03:57.822Z,98665.44
2022-12-31T00:05:00.761Z,98657.09
2022-12-31T00:06:27.379Z,98666.50
2022-12-31T00:07:30.419Z,98669.31
2022-12-31T00:08:33.459Z,98660.97
2022-12-31T00:09:36.585Z,98664.41
2022-12-31T00:10:41.872Z,98656.03
2022-12-31T00:11:44.914Z,98657.00
2022-12-31T00:12:47.871Z,98654.78
2022-12-31T00:13:51.785Z,98672.78
2022-12-31T00:14:54.736Z,98661.91
2022-12-31T00:16:12.008Z,98670.25
2022-12-31T00:17:15.554Z,98670.50
2022-12-31T00:18:18.580Z,98675.84
2022-12-31T00:19:21.515Z,98679.50
2022-12-31T00:20:24.575Z,98680.03
2022-12-31T00:21:29.697Z,98685.66
2022-12-31T00:22:32.705Z,98684.91
2022-12-31T00:23:36.553Z,98684.91
2022-12-31T00:24:39.619Z,98683.66
2022-12-31T00:25:42.420Z,98688.88
2022-12-31T00:26:45.622Z,98687.88
2022-12-31T00:27:48.541Z,98691.53
2022-12-31T00:28:53.065Z,98695.41
2022-12-31T00:30:00.939Z,98697.69
2022-12-31T00:31:11.433Z,98693.59
2022-12-31T00:32:14.592Z,98707.69
2022-12-31T00:33:17.537Z,98705.25
2022-12-31T00:34:20.500Z,98702.53
2022-12-31T00:35:23.552Z,98701.59
2022-12-31T00:36:35.231Z,98705.78
2022-12-31T00:37:38.188Z,98694.19
2022-12-31T00:38:43.507Z,98702.25
2022-12-31T00:39:46.637Z,98701.78
2022-12-31T00:40:49.741Z,98695.50
2022-12-31T00:41:56.078Z,98709.78
2022-12-31T00:42:59.004Z,98701.22
2022-12-31T00:44:02.317Z,98694.16
2022-12-31T00:45:05.604Z,98699.56
2022-12-31T00:46:09.844Z,98704.56
2022-12-31T00:47:13.036Z,98697.69
2022-12-31T00:48:16.218Z,98699.88
2022-12-31T00:49:19.859Z,98697.87
2022-12-31T00:50:22.737Z,98702.09
2022-12-31T00:51:29.020Z,98708.97
2022-12-31T00:52:31.892Z,98707.19
2022-12-31T00:53:34.948Z,98713.81
2022-12-31T00:54:37.873Z,98708.38
2022-12-31T00:55:40.870Z,98714.44
2022-12-31T00:56:43.894Z,98715.69
2022-12-31T00:57:46.904Z,98722.91
2022-12-31T00:58:50.880Z,98726.34
2022-12-31T00:59:53.735Z,98730.00
2022-12-31T01:00:57.536Z,98724.06
2022-12-31T01:02:00.714Z,98720.84
2022-12-31T01:03:04.547Z,98722.22
2022-12-31T01:04:14.036Z,98723.66
2022-12-31T01:05:17.093Z,98716.25
2022-12-31T01:06:20.896Z,98714.78
2022-12-31T01:07:24.067Z,98713.53
2022-12-31T01:09:36.862Z,98715.53
2022-12-31T01:10:58.231Z,98712.28
2022-12-31T01:12:01.222Z,98712.94
2022-12-31T01:13:04.336Z,98717.03
2022-12-31T01:14:10.337Z,98704.91
2022-12-31T01:15:13.259Z,98709.62
2022-12-31T01:16:17.742Z,98707.63
2022-12-31T01:17:20.958Z,98719.22
2022-12-31T01:18:23.941Z,98710.56
2022-12-31T01:19:31.302Z,98715.78
2022-12-31T01:20:39.697Z,98717.69
2022-12-31T01:21:44.459Z,98716.31
2022-12-31T01:22:47.464Z,98721.03
2022-12-31T01:23:50.752Z,98718.09
2022-12-31T01:24:53.657Z,98721.56
2022-12-31T01:25:56.660Z,98728.75
2022-12-31T01:26:59.982Z,98727.50
2022-12-31T01:28:04.033Z,98728.87
2022-12-31T01:29:08.669Z,98721.03
2022-12-31T01:30:12.412Z,98725.72
2022-12-31T01:31:18.760Z,98723.84
2022-12-31T01:32:22.022Z,98721.66
2022-12-31T01:33:25.587Z,98731.75
2022-12-31T01:34:28.713Z,98731.03
2022-12-31T01:35:35.295Z,98726.66
2022-12-31T01:36:39.184Z,98738.34
2022-12-31T01:37:42.176Z,98734.66
2022-12-31T01:38:45.302Z,98738.63
2022-12-31T01:39:48.747Z,98743.13
2022-12-31T01:40:51.697Z,98737.97
2022-12-31T01:41:54.713Z,98745.59
2022-12-31T01:42:58.497Z,98737.47
2022-12-31T01:44:12.196Z,98737.47
2022-12-31T01:45:15.341Z,98735.06
2022-12-31T01:46:47.455Z,98739.44
2022-12-31T01:47:55.552Z,98737.97
2022-12-31T01:49:15.419Z,98738.72
2022-12-31T01:50:23.222Z,98736.00
2022-12-31T01:51:30.858Z,98733.28
2022-12-31T01:52:47.632Z,98737.69
2022-12-31T01:53:51.105Z,98726.50
2022-12-31T01:55:08.547Z,98731.22
2022-12-31T01:56:11.704Z,98729.63
2022-12-31T01:57:16.236Z,98730.00
2022-12-31T01:58:23.578Z,98723.62
2022-12-31T01:59:28.344Z,98729.28
2022-12-31T02:00:32.885Z,98726.56
2022-12-31T02:01:37.954Z,98732.59
2022-12-31T02:02:41.155Z,98735.84
2022-12-31T02:03:45.016Z,98746.53
2022-12-31T02:04:51.377Z,98734.75
2022-12-31T02:06:23.423Z,98734.97
2022-12-31T02:07:26.593Z,98745.09
2022-12-31T02:08:29.904Z,98736.84
2022-12-31T02:09:34.547Z,98745.53
2022-12-31T02:10:37.413Z,98747.59
2022-12-31T02:11:40.585Z,98739.28
2022-12-31T02:12:43.764Z,98747.00
2022-12-31T02:13:47.331Z,98747.81
2022-12-31T02:14:54.106Z,98742.16
2022-12-31T02:16:18.608Z,98747.66
2022-12-31T02:17:46.720Z,98757.84
2022-12-31T02:19:11.726Z,98754.94
2022-12-31T02:20:32.776Z,98745.81
2022-12-31T02:21:47.823Z,98747.97
2022-12-31T02:23:09.001Z,98739.91
2022-12-31T02:24:31.326Z,98741.56
2022-12-31T02:25:46.190Z,98733.38
2022-12-31T02:27:13.202Z,98736.56
2022-12-31T02:28:34.717Z,98738.63
2022-12-31T02:30:02.485Z,98741.63
2022-12-31T02:31:32.026Z,98736.78
2022-12-31T02:33:02.373Z,98742.72
2022-12-31T02:34:17.700Z,98749.91
2022-12-31T02:35:37.616Z,98754.88
2022-12-31T02:36:45.987Z,98757.81
2022-12-31T02:37:54.193Z,98770.34
2022-12-31T02:38:58.986Z,98760.09
2022-12-31T02:40:03.067Z,98758.97
2022-12-31T02:41:06.108Z,98753.34
2022-12-31T02:42:11.853Z,98759.25
2022-12-31T02:43:15.028Z,98753.56
2022-12-31T02:44:19.192Z,98752.84
2022-12-31T02:45:31.722Z,98754.88
2022-12-31T02:46:45.942Z,98756.63
2022-12-31T02:48:06.370Z,98749.31
2022-12-31T02:49:50.743Z,98753.75
2022-12-31T02:50:59.025Z,98751.31
2022-12-31T02:52:27.988Z,98751.81
2022-12-31T02:53:52.003Z,98743.25
2022-12-31T02:55:02.235Z,98742.97
2022-12-31T02:56:18.692Z,98736.34
2022-12-31T02:57:51.653Z,98732.19
2022-12-31T02:59:28.561Z,98742.34
2022-12-31T03:00:52.783Z,98741.63
2022-12-31T03:02:14.915Z,98735.06
2022-12-31T03:03:20.808Z,98734.56
2022-12-31T03:04:38.227Z,98735.34
2022-12-31T03:05:45.179Z,98734.91
2022-12-31T03:06:48.811Z,98739.81
2022-12-31T03:07:51.711Z,98742.31
2022-12-31T03:09:13.131Z,98743.31
2022-12-31T03:10:16.281Z,98746.53
2022-12-31T03:11:39.179Z,98751.94
2022-12-31T03:12:48.079Z,98740.75
2022-12-31T03:13:51.252Z,98726.00
2022-12-31T03:14:54.490Z,98724.97
2022-12-31T03:15:57.438Z,98728.41
2022-12-31T03:17:00.970Z,98733.53
2022-12-31T03:18:06.253Z,98727.44
2022-12-31T03:19:28.076Z,98743.47
2022-12-31T03:21:08.321Z,98730.66
2022-12-31T03:22:28.938Z,98739.28
2022-12-31T03:23:41.498Z,98737.03
2022-12-31T03:25:03.153Z,98730.59
2022-12-31T03:26:12.007Z,98722.25
2022-12-31T03:27:15.334Z,98725.41
2022-12-31T03:28:25.310Z,98726.09
2022-12-31T03:29:28.319Z,98723.38
2022-12-31T03:30:32.239Z,98732.50
2022-12-31T03:31:35.269Z,98728.66
2022-12-31T03:32:38.350Z,98720.78
2022-12-31T03:33:43.407Z,98727.22
2022-12-31T03:34:46.622Z,98724.28
2022-12-31T03:35:50.892Z,98734.19
2022-12-31T03:36:53.854Z,98731.94
2022-12-31T03:37:57.965Z,98728.00
2022-12-31T03:39:00.866Z,98731.94
2022-12-31T03:40:04.308Z,98726.53
2022-12-31T03:41:11.348Z,98729.19
2022-12-31T03:42:14.373Z,98725.41
2022-12-31T03:43:19.630Z,98727.34
2022-12-31T03:44:22.721Z,98733.66
2022-12-31T03:45:25.704Z,98736.34
2022-12-31T03:46:28.763Z,98730.72
2022-12-31T03:47:32.167Z,98729.75
2022-12-31T03:48:38.286Z,98730.78
2022-12-31T03:49:41.232Z,98738.22
2022-12-31T03:50:44.275Z,98739.69
2022-12-31T03:51:47.535Z,98735.47
2022-12-31T03:52:50.603Z,98731.50
2022-12-31T03:53:53.618Z,98728.22
2022-12-31T03:54:56.767Z,98726.91
2022-12-31T03:55:59.683Z,98720.53
2022-12-31T03:57:02.715Z,98718.84
2022-12-31T03:58:05.707Z,98719.38
2022-12-31T03:59:08.655Z,98718.41
2022-12-31T04:00:16.203Z,98718.41
2022-12-31T04:01:19.868Z,98723.31
2022-12-31T04:02:28.493Z,98723.31
2022-12-31T04:03:32.060Z,98726.31
2022-12-31T04:04:34.927Z,98728.06
2022-12-31T04:05:37.965Z,98721.91
2022-12-31T04:06:40.939Z,98725.63
2022-12-31T04:07:44.776Z,98720.72
2022-12-31T04:08:48.098Z,98715.03
2022-12-31T04:09:51.374Z,98712.09
2022-12-31T04:10:54.469Z,98714.56
2022-12-31T04:11:57.388Z,98721.72
2022-12-31T04:13:02.670Z,98724.97
2022-12-31T04:14:05.909Z,98724.97
2022-12-31T04:15:10.804Z,98727.87
2022-12-31T04:16:13.911Z,98724.97
2022-12-31T04:17:17.551Z,98723.72
2022-12-31T04:18:20.537Z,98723.16
2022-12-31T04:19:23.840Z,98721.41
2022-12-31T04:20:27.154Z,98729.00
2022-12-31T04:21:34.864Z,98732.25
2022-12-31T04:22:38.920Z,98731.78
2022-12-31T04:23:42.019Z,98740.44
2022-12-31T04:24:45.743Z,98749.81
2022-12-31T04:25:48.878Z,98752.78
2022-12-31T04:26:52.180Z,98758.16
2022-12-31T04:27:55.299Z,98751.28
2022-12-31T04:28:58.328Z,98756.00
2022-12-31T04:30:01.580Z,98758.78
2022-12-31T04:31:04.522Z,98751.37
2022-12-31T04:32:08.582Z,98746.38
2022-12-31T04:33:11.565Z,98755.97
2022-12-31T04:34:14.737Z,98758.72
2022-12-31T04:35:17.829Z,98746.91
2022-12-31T04:36:20.776Z,98755.34
2022-12-31T04:37:24.040Z,98748.22
2022-12-31T04:38:29.884Z,98749.97
2022-12-31T04:39:32.989Z,98752.22
2022-12-31T04:40:55.945Z,98750.53
2022-12-31T04:41:58.976Z,98747.81
2022-12-31T04:43:01.973Z,98760.38
2022-12-31T04:44:05.052Z,98763.38
2022-12-31T04:45:09.077Z,98762.41
2022-12-31T04:46:12.460Z,98774.25
2022-12-31T04:47:20.238Z,98763.19
2022-12-31T04:48:26.545Z,98767.09
2022-12-31T04:49:29.461Z,98766.50
2022-12-31T04:50:32.463Z,98769.94
2022-12-31T04:51:35.530Z,98772.16
2022-12-31T04:52:42.741Z,98775.31
2022-12-31T04:53:46.637Z,98772.59
2022-12-31T04:54:56.183Z,98780.44
2022-12-31T04:55:59.140Z,98777.75
2022-12-31T04:57:02.350Z,98779.16
2022-12-31T04:58:05.516Z,98780.63
2022-12-31T04:59:10.622Z,98777.69
2022-12-31T05:00:14.017Z,98780.22
2022-12-31T05:01:17.345Z,98787.44
2022-12-31T05:02:20.549Z,98788.22
2022-12-31T05:03:25.797Z,98793.91
2022-12-31T05:04:28.932Z,98791.47
2022-12-31T05:05:31.969Z,98798.88
2022-12-31T05:06:34.964Z,98786.56
2022-12-31T05:07:38.075Z,98788.78
2022-12-31T05:08:41.369Z,98795.38
2022-12-31T05:09:44.489Z,98798.88
2022-12-31T05:10:49.885Z,98803.59
2022-12-31T05:11:52.860Z,98813.69
2022-12-31T05:12:56.618Z,98818.41
2022-12-31T05:13:59.779Z,98814.25
2022-12-31T05:15:02.831Z,98812.50
2022-12-31T05:16:06.917Z,98815.44
2022-12-31T05:17:10.003Z,98813.91
2022-12-31T05:18:13.522Z,98812.47
2022-12-31T05:19:16.540Z,98807.56
2022-12-31T05:20:19.499Z,98809.28
2022-12-31T05:21:22.619Z,98808.59
2022-12-31T05:22:31.673Z,98812.56
2022-12-31T05:23:38.304Z,98810.13
2022-12-31T05:24:41.299Z,98806.69
2022-12-31T05:25:46.190Z,98808.41
2022-12-31T05:26:49.069Z,98801.50
2022-12-31T05:27:52.225Z,98805.91
2022-12-31T05:28:56.725Z,98804.66
2022-12-31T05:30:00.517Z,98795.81
2022-12-31T05:31:03.641Z,98807.88
2022-12-31T05:32:06.779Z,98811.34
2022-12-31T05:33:09.825Z,98811.34
2022-12-31T05:34:12.751Z,98814.50
2022-12-31T05:35:16.422Z,98810.78
2022-12-31T05:36:19.621Z,98823.31
2022-12-31T05:37:22.699Z,98826.50
2022-12-31T05:38:26.774Z,98825.22
2022-12-31T05:39:29.708Z,98822.72
2022-12-31T05:40:32.825Z,98829.13
2022-12-31T05:41:35.819Z,98832.28
2022-12-31T05:42:39.159Z,98830.56
2022-12-31T05:43:42.184Z,98832.75
2022-12-31T05:44:45.150Z,98833.47
2022-12-31T05:45:48.083Z,98829.78
2022-12-31T05:46:55.156Z,98834.69
2022-12-31T05:47:58.297Z,98837.41
2022-12-31T05:49:01.325Z,98845.00
2022-12-31T05:50:04.793Z,98841.31
2022-12-31T05:51:09.559Z,98850.37
2022-12-31T05:52:12.577Z,98846.44
2022-12-31T05:53:15.592Z,98848.88
2022-12-31T05:54:18.607Z,98841.69
2022-12-31T05:55:22.011Z,98846.62
2022-12-31T05:56:24.940Z,98844.88
2022-12-31T05:57:28.876Z,98850.53
2022-12-31T05:58:31.947Z,98847.84
2022-12-31T05:59:35.445Z,98841.66
2022-12-31T06:00:38.541Z,98847.31
2022-12-31T06:01:41.586Z,98845.34
2022-12-31T06:02:44.740Z,98852.47
2022-12-31T06:03:47.946Z,98850.50
2022-12-31T06:04:50.949Z,98851.91
2022-12-31T06:05:53.906Z,98852.38
2022-12-31T06:06:57.013Z,98846.94
2022-12-31T06:07:59.941Z,98866.88
2022-12-31T06:09:03.498Z,98858.75
2022-12-31T06:10:07.150Z,98869.31
2022-12-31T06:11:11.348Z,98862.66
2022-12-31T06:12:14.463Z,98862.09
2022-12-31T06:13:17.459Z,98860.06
2022-12-31T06:14:20.352Z,98857.34
2022-12-31T06:15:23.385Z,98862.03
2022-12-31T06:16:27.102Z,98863.50
2022-12-31T06:17:32.739Z,98855.59
2022-12-31T06:18:36.113Z,98866.16
2022-12-31T06:19:39.779Z,98855.75
2022-12-31T06:20:42.856Z,98851.06
2022-12-31T06:21:46.048Z,98854.47
2022-12-31T06:22:49.021Z,98846.56
2022-12-31T06:23:52.238Z,98852.00
2022-12-31T06:24:55.390Z,98855.88
2022-12-31T06:26:07.241Z,98849.22
2022-12-31T06:27:10.205Z,98851.94
2022-12-31T06:28:20.055Z,98854.12
2022-12-31T06:29:23.592Z,98860.28
2022-12-31T06:30:26.848Z,98860.28
2022-12-31T06:31:29.750Z,98865.44
2022-12-31T06:32:32.858Z,98862.72
2022-12-31T06:33:36.027Z,98861.69
2022-12-31T06:34:39.078Z,98867.56
2022-12-31T06:35:42.025Z,98859.94
2022-12-31T06:36:46.129Z,98865.81
2022-12-31T06:37:49.162Z,98856.44
2022-12-31T06:38:52.286Z,98868.75
2022-12-31T06:39:55.588Z,98860.38
2022-12-31T06:40:58.659Z,98865.53
2022-12-31T06:42:01.583Z,98861.56
2022-12-31T06:43:04.604Z,98869.41
2022-12-31T06:44:07.543Z,98872.34
2022-12-31T06:45:11.123Z,98868.62
2022-12-31T06:46:17.444Z,98870.09
2022-12-31T06:47:20.578Z,98866.84
2022-12-31T06:48:24.180Z,98873.03
2022-12-31T06:49:27.109Z,98865.84
2022-12-31T06:50:30.093Z,98871.28
2022-12-31T06:51:33.181Z,98867.81
2022-12-31T06:52:36.602Z,98863.63
2022-12-31T06:53:40.471Z,98866.34
2022-12-31T06:54:43.870Z,98870.53
2022-12-31T06:55:49.104Z,98868.03
2022-12-31T06:56:52.560Z,98867.59
2022-12-31T06:57:55.906Z,98866.34
2022-12-31T06:58:59.475Z,98873.47
2022-12-31T07:00:02.786Z,98871.28
2022-12-31T07:01:15.339Z,98874.47
2022-12-31T07:02:47.586Z,98878.69
2022-12-31T07:04:16.709Z,98880.87
2022-12-31T07:05:28.467Z,98882.13
2022-12-31T07:06:39.185Z,98885.78
2022-12-31T07:08:13.233Z,98889.75
2022-12-31T07:09:45.117Z,98880.16
2022-12-31T07:11:08.149Z,98885.50
2022-12-31T07:12:33.100Z,98881.34
2022-12-31T07:14:11.624Z,98876.12
2022-12-31T07:15:35.231Z,98873.06
2022-12-31T07:17:00.345Z,98873.53
2022-12-31T07:18:12.506Z,98873.53
2022-12-31T07:19:46.459Z,98877.03
2022-12-31T07:20:50.023Z,98883.91
2022-12-31T07:21:56.185Z,98885.91
2022-12-31T07:22:59.637Z,98881.19
2022-12-31T07:24:03.578Z,98886.09
2022-12-31T07:25:07.920Z,98888.81
2022-12-31T07:26:26.702Z,98893.97
2022-12-31T07:27:48.061Z,98897.63
2022-12-31T07:29:01.980Z,98887.75
2022-12-31T07:30:19.182Z,98892.12
2022-12-31T07:32:08.018Z,98889.63
2022-12-31T07:33:38.501Z,98883.91
2022-12-31T07:34:49.262Z,98896.47
2022-12-31T07:36:30.341Z,98886.56
2022-12-31T07:38:09.946Z,98879.38
2022-12-31T07:39:36.668Z,98878.78
2022-12-31T07:41:23.181Z,98883.91
2022-12-31T07:42:38.958Z,98884.66
2022-12-31T07:43:54.069Z,98884.12
2022-12-31T07:45:23.579Z,98892.72
2022-12-31T07:46:38.196Z,98898.56
2022-12-31T07:47:41.433Z,98901.53
2022-12-31T07:48:45.438Z,98904.47
2022-12-31T07:49:51.187Z,98906.66
2022-12-31T07:50:56.273Z,98904.66
2022-12-31T07:51:59.800Z,98911.06
2022-12-31T07:53:03.153Z,98916.72
2022-12-31T07:54:13.418Z,98907.53
2022-12-31T07:55:17.139Z,98913.41
2022-12-31T07:56:20.163Z,98911.84
2022-12-31T07:57:31.819Z,98907.38
2022-12-31T07:58:41.428Z,98902.16
2022-12-31T08:00:07.245Z,98905.31
2022-12-31T08:01:14.142Z,98905.00
2022-12-31T08:02:17.253Z,98905.66
2022-12-31T08:03:26.591Z,98912.47
2022-12-31T08:04:46.728Z,98902.16
2022-12-31T08:06:06.678Z,98897.69
2022-12-31T08:07:09.623Z,98911.06
2022-12-31T08:08:33.804Z,98915.56
2022-12-31T08:09:58.445Z,98939.31
2022-12-31T08:11:06.737Z,98941.94
2022-12-31T08:12:09.881Z,98946.12
2022-12-31T08:13:13.262Z,98943.41
2022-12-31T08:14:16.626Z,98944.88
2022-12-31T08:15:24.112Z,98957.53
2022-12-31T08:16:30.997Z,98964.00
2022-12-31T08:17:34.172Z,98950.19
2022-12-31T08:18:37.381Z,98954.19
2022-12-31T08:19:40.671Z,98959.63
2022-12-31T08:20:54.381Z,98962.09
2022-12-31T08:22:34.365Z,98961.69
2022-12-31T08:23:43.771Z,98960.19
2022-12-31T08:24:52.249Z,98978.13
2022-12-31T08:26:11.013Z,98971.75
2022-12-31T08:27:31.629Z,98962.41
2022-12-31T08:28:51.913Z,98973.81
2022-12-31T08:30:19.385Z,98983.44
2022-12-31T08:31:45.343Z,98978.81
2022-12-31T08:33:14.539Z,98981.53
2022-12-31T08:34:33.247Z,98988.88
2022-12-31T08:36:06.129Z,98994.34
2022-12-31T08:37:54.566Z,98995.06
2022-12-31T08:39:16.808Z,99008.88
2022-12-31T08:40:46.389Z,99011.06
2022-12-31T08:41:54.391Z,99015.28
2022-12-31T08:43:43.826Z,99016.94
2022-12-31T08:45:13.947Z,99012.69
2022-12-31T08:46:31.042Z,99022.94
2022-12-31T08:48:03.139Z,99026.84
2022-12-31T08:49:10.166Z,99020.38
2022-12-31T08:50:18.779Z,99002.47
2022-12-31T08:51:24.887Z,98997.16
2022-12-31T08:52:28.067Z,98997.81
2022-12-31T08:53:31.483Z,99002.63
2022-12-31T08:54:34.771Z,99010.94
2022-12-31T08:55:38.121Z,99010.41
2022-12-31T08:56:52.094Z,99009.34
2022-12-31T08:58:10.165Z,99010.22
2022-12-31T08:59:39.313Z,99013.56
2022-12-31T09:00:43.151Z,99019.44
2022-12-31T09:01:55.144Z,99028.53
2022-12-31T09:03:16.614Z,99028.44
2022-12-31T09:04:44.314Z,99026.16
2022-12-31T09:06:05.705Z,99024.59
2022-12-31T09:07:09.906Z,99012.94
2022-12-31T09:08:16.515Z,99011.16
2022-12-31T09:09:38.721Z,99013.59
2022-12-31T09:10:57.571Z,99003.09
2022-12-31T09:12:18.564Z,99011.25
2022-12-31T09:13:42.097Z,99013.97
2022-12-31T09:14:50.282Z,99010.03
2022-12-31T09:16:02.579Z,99006.03
2022-12-31T09:17:27.872Z,99011.69
2022-12-31T09:18:34.801Z,99002.25
2022-12-31T09:19:37.828Z,99013.56
2022-12-31T09:20:43.341Z,99018.47
2022-12-31T09:21:47.556Z,99008.66
2022-12-31T09:22:51.439Z,98999.41
2022-12-31T09:23:55.014Z,98995.84
2022-12-31T09:24:58.622Z,99005.69
2022-12-31T09:26:32.293Z,98997.53
2022-12-31T09:27:49.023Z,99003.72
2022-12-31T09:29:27.599Z,98991.50
2022-12-31T09:30:51.206Z,98990.66
2022-12-31T09:32:31.170Z,98988.88
2022-12-31T09:34:09.837Z,98984.88
2022-12-31T09:35:34.314Z,98979.97
2022-12-31T09:36:45.249Z,98979.09
2022-12-31T09:38:11.213Z,98977.72
2022-12-31T09:39:26.285Z,98978.44
2022-12-31T09:40:29.306Z,98974.66
2022-12-31T09:42:01.346Z,98976.53
2022-12-31T09:43:26.662Z,98969.88
2022-12-31T09:45:09.867Z,98967.84
2022-12-31T09:46:32.385Z,98967.16
2022-12-31T09:48:12.614Z,98957.75
2022-12-31T09:50:01.241Z,98961.91
2022-12-31T09:51:24.886Z,98956.50
2022-12-31T09:52:48.525Z,98966.00
2022-12-31T09:54:09.427Z,98956.37
2022-12-31T09:55:36.173Z,98955.69
2022-12-31T09:56:48.246Z,98952.47
2022-12-31T09:58:20.281Z,98951.75
2022-12-31T09:59:39.383Z,98944.91
2022-12-31T10:00:44.971Z,98942.16
2022-12-31T10:02:09.706Z,98945.06
2022-12-31T10:03:24.516Z,98941.28
2022-12-31T10:04:54.826Z,98946.19
2022-12-31T10:06:34.662Z,98933.44
2022-12-31T10:07:56.715Z,98945.47
2022-12-31T10:09:08.467Z,98945.66
2022-12-31T10:10:23.050Z,98950.25
2022-12-31T10:11:33.591Z,98950.63
2022-12-31T10:12:57.791Z,98957.22
2022-12-31T10:14:40.999Z,98955.19
2022-12-31T10:16:05.323Z,98962.13
2022-12-31T10:17:19.551Z,98955.03
2022-12-31T10:19:13.905Z,98961.44
2022-12-31T10:20:30.382Z,98960.16
2022-12-31T10:21:55.341Z,98966.00
2022-12-31T10:23:07.324Z,98959.06
2022-12-31T10:24:51.658Z,98958.34
2022-12-31T10:25:59.434Z,98963.41
2022-12-31T10:27:11.073Z,98962.50
2022-12-31T10:28:13.809Z,98961.78
2022-12-31T10:29:50.023Z,98965.25
2022-12-31T10:31:15.019Z,98965.06
2022-12-31T10:32:31.240Z,98976.19
2022-12-31T10:33:46.157Z,98972.91
2022-12-31T10:35:14.104Z,98971.06
2022-12-31T10:36:17.415Z,98978.53
2022-12-31T10:37:36.373Z,98969.25
2022-12-31T10:38:51.944Z,98967.06
2022-12-31T10:40:15.051Z,98956.81
2022-12-31T10:41:37.327Z,98950.63
2022-12-31T10:43:06.512Z,98959.38
2022-12-31T10:44:46.986Z,98971.03
2022-12-31T10:45:56.238Z,98969.59
2022-12-31T10:47:24.187Z,98962.69
2022-12-31T10:48:59.343Z,98968.16
2022-12-31T10:50:02.216Z,98963.41
2022-12-31T10:51:10.934Z,98961.91
2022-12-31T10:52:49.884Z,98962.44
2022-12-31T10:53:52.698Z,98963.91
2022-12-31T10:55:01.333Z,98976.84
2022-12-31T10:56:19.098Z,98965.56
2022-12-31T10:57:51.956Z,98955.19
2022-12-31T10:59:13.234Z,98963.06
2022-12-31T11:00:23.805Z,98968.50
2022-12-31T11:02:01.027Z,98965.75
2022-12-31T11:03:50.918Z,98966.31
2022-12-31T11:05:12.316Z,98971.78
2022-12-31T11:06:54.019Z,98967.22
2022-12-31T11:08:37.304Z,98963.03
2022-12-31T11:10:01.532Z,98961.94
2022-12-31T11:11:19.021Z,98968.69
2022-12-31T11:12:46.769Z,98971.97
2022-12-31T11:13:58.697Z,98974.50
2022-12-31T11:15:19.632Z,98965.63
2022-12-31T11:16:50.908Z,98966.72
2022-12-31T11:18:21.426Z,98947.56
2022-12-31T11:20:01.267Z,98952.13
2022-12-31T11:21:34.290Z,98957.59
2022-12-31T11:22:48.918Z,98947.38
2022-12-31T11:24:00.729Z,98942.63
2022-12-31T11:25:13.043Z,98956.69
2022-12-31T11:26:45.524Z,98961.06
2022-12-31T11:28:13.218Z,98951.59
2022-12-31T11:29:46.615Z,98952.31
2022-12-31T11:31:13.318Z,98963.47
2022-12-31T11:32:29.124Z,98951.25
2022-12-31T11:33:35.187Z,98954.16
2022-12-31T11:34:38.045Z,98946.72
2022-12-31T11:35:43.491Z,98951.06
2022-12-31T11:37:31.641Z,98948.87
2022-12-31T11:38:41.089Z,98948.16
2022-12-31T11:39:59.319Z,98942.69
2022-12-31T11:41:12.222Z,98941.97
2022-12-31T11:42:39.305Z,98940.16
2022-12-31T11:44:01.060Z,98935.59
2022-12-31T11:45:37.976Z,98941.44
2022-12-31T11:46:43.728Z,98935.22
2022-12-31T11:48:29.635Z,98927.41
2022-12-31T11:49:48.772Z,98922.66
2022-12-31T11:50:57.710Z,98919.56
2022-12-31T11:52:12.319Z,98931.63
2022-12-31T11:53:46.307Z,98923.78
2022-12-31T11:55:16.682Z,98930.34
2022-12-31T11:56:23.310Z,98950.78
2022-12-31T11:57:32.245Z,98938.72
2022-12-31T11:58:35.263Z,98952.62
2022-12-31T11:59:38.403Z,98952.25
2022-12-31T12:01:08.308Z,98945.31
2022-12-31T12:02:26.488Z,98954.06
2022-12-31T12:03:29.796Z,98952.06
2022-12-31T12:04:32.902Z,98956.44
2022-12-31T12:05:36.807Z,98958.09
2022-12-31T12:06:41.234Z,98965.03
2022-12-31T12:07:44.545Z,98954.44
2022-12-31T12:08:47.885Z,98967.59
2022-12-31T12:09:54.883Z,98959.91
2022-12-31T12:11:08.408Z,98968.31
2022-12-31T12:12:12.348Z,98967.03
2022-12-31T12:13:22.478Z,98966.47
2022-12-31T12:14:38.429Z,98967.22
2022-12-31T12:15:46.397Z,98967.22
2022-12-31T12:17:00.715Z,98959.53
2022-12-31T12:18:10.491Z,98957.34
2022-12-31T12:19:19.415Z,98960.25
2022-12-31T12:20:34.187Z,98960.62
2022-12-31T12:21:47.209Z,98959.53
2022-12-31T12:22:53.175Z,98955.88
2022-12-31T12:24:20.769Z,98951.13
2022-12-31T12:25:36.502Z,98948.56
2022-12-31T12:26:43.575Z,98952.56
2022-12-31T12:27:46.859Z,98956.37
2022-12-31T12:28:51.106Z,98953.97
2022-12-31T12:29:54.384Z,98951.59
2022-12-31T12:31:01.895Z,98953.97
2022-12-31T12:32:16.026Z,98958.34
2022-12-31T12:33:20.896Z,98956.53
2022-12-31T12:34:35.407Z,98954.88
2022-12-31T12:35:39.874Z,98953.94
2022-12-31T12:36:47.872Z,98947.31
2022-12-31T12:38:13.845Z,98947.50
2022-12-31T12:39:22.613Z,98953.16
2022-12-31T12:40:33.485Z,98952.44
2022-12-31T12:41:40.395Z,98945.47
2022-12-31T12:42:48.873Z,98947.47
2022-12-31T12:44:05.427Z,98951.00
2022-12-31T12:45:16.691Z,98955.00
2022-12-31T12:46:36.311Z,98953.53
2022-12-31T12:47:43.827Z,98956.13
2022-12-31T12:48:49.806Z,98950.09
2022-12-31T12:49:55.182Z,98951.75
2022-12-31T12:50:58.554Z,98952.13
2022-12-31T12:52:21.886Z,98950.84
2022-12-31T12:53:54.659Z,98955.59
2022-12-31T12:55:09.651Z,98954.31
2022-12-31T12:56:31.126Z,98959.63
2022-12-31T12:57:49.251Z,98954.88
2022-12-31T12:59:14.629Z,98958.34
2022-12-31T13:00:23.756Z,98950.69
2022-12-31T13:02:12.111Z,98953.41
2022-12-31T13:04:07.442Z,98944.47
2022-12-31T13:05:12.246Z,98940.81
2022-12-31T13:06:56.625Z,98948.50
2022-12-31T13:08:11.658Z,98947.94
2022-12-31T13:09:22.956Z,98941.34
2022-12-31T13:10:47.204Z,98945.34
2022-12-31T13:12:12.977Z,98942.66
2022-12-31T13:13:27.197Z,98947.91
2022-12-31T13:14:51.935Z,98943.69
2022-12-31T13:16:26.924Z,98945.91
2022-12-31T13:17:57.307Z,98947.25
2022-12-31T13:19:36.707Z,98944.69
2022-12-31T13:20:39.814Z,98952.53
2022-12-31T13:21:46.779Z,98950.72
2022-12-31T13:23:15.476Z,98966.78
2022-12-31T13:24:43.034Z,98957.84
2022-12-31T13:25:57.765Z,98973.69
2022-12-31T13:27:12.651Z,98971.16
2022-12-31T13:28:18.925Z,98971.91
2022-12-31T13:29:26.479Z,98969.69
2022-12-31T13:30:50.607Z,98972.66
2022-12-31T13:31:58.121Z,98966.97
2022-12-31T13:33:18.474Z,98970.63
2022-12-31T13:34:27.485Z,98969.19
2022-12-31T13:35:37.829Z,98966.63
2022-12-31T13:36:43.553Z,98971.56
2022-12-31T13:37:48.208Z,98968.25
2022-12-31T13:38:58.601Z,98955.06
2022-12-31T13:40:12.267Z,98956.53
2022-12-31T13:41:28.097Z,98955.78
2022-12-31T13:42:44.070Z,98968.22
2022-12-31T13:44:05.366Z,98965.69
2022-12-31T13:45:19.060Z,98966.06
2022-12-31T13:46:52.533Z,98966.78
2022-12-31T13:48:04.427Z,98962.78
2022-12-31T13:49:20.279Z,98958.94
2022-12-31T13:50:32.771Z,98956.19
2022-12-31T13:51:51.571Z,98966.44
2022-12-31T13:53:06.331Z,98973.91
2022-12-31T13:54:21.311Z,98979.37
2022-12-31T13:55:34.618Z,98976.84
2022-12-31T13:56:42.283Z,98977.94
2022-12-31T13:58:02.339Z,98980.31
2022-12-31T13:59:15.353Z,98987.59
2022-12-31T14:00:24.320Z,98988.37
2022-12-31T14:01:50.367Z,98974.81
2022-12-31T14:02:53.307Z,98970.78